createdAt,value
2023-09-27T00:01:52.378Z,100144.19
2023-09-27T00:04:20.480Z,100150.97
2023-09-27T00:06:47.060Z,100160.59
2023-09-27T00:09:13.550Z,100164.34
2023-09-27T00:11:41.140Z,100165.38
2023-09-27T00:14:07.675Z,100172.03
2023-09-27T00:16:34.345Z,100151.53
2023-09-27T00:19:00.932Z,100150.22
2023-09-27T00:21:28.831Z,100142.25
2023-09-27T00:23:55.430Z,100149.38
2023-09-27T00:26:21.929Z,100153.13
2023-09-27T00:28:48.392Z,100157.34
2023-09-27T00:31:15.893Z,100149.06
2023-09-27T00:33:42.314Z,100163.28
2023-09-27T00:36:10.929Z,100166.13
2023-09-27T00:38:38.670Z,100166.75
2023-09-27T00:41:05.175Z,100160.69
2023-09-27T00:43:33.086Z,100166.59
2023-09-27T00:46:02.143Z,100174.69
2023-09-27T00:48:29.494Z,100182.97
2023-09-27T00:50:56.573Z,100187.56
2023-09-27T00:53:26.404Z,100198.56
2023-09-27T00:55:55.638Z,100198.56
2023-09-27T00:58:22.681Z,100196.50
2023-09-27T01:00:50.380Z,100205.59
2023-09-27T01:03:17.116Z,100200.06
2023-09-27T01:05:44.216Z,100192.06
2023-09-27T01:08:11.316Z,100193.06
2023-09-27T01:10:38.650Z,100197.66
2023-09-27T01:13:07.896Z,100201.19
2023-09-27T01:15:34.671Z,100206.34
2023-09-27T01:18:02.265Z,100208.53
2023-09-27T01:20:29.790Z,100209.66
2023-09-27T01:22:58.238Z,100218.47
2023-09-27T01:25:27.952Z,100222.09
2023-09-27T01:27:54.440Z,100222.25
2023-09-27T01:30:21.173Z,100217.56
2023-09-27T01:32:47.697Z,100215.19
2023-09-27T01:35:14.378Z,100196.78
2023-09-27T01:37:40.825Z,100191.16
2023-09-27T01:40:09.764Z,100195.09
2023-09-27T01:42:36.610Z,100206.38
2023-09-27T01:45:03.571Z,100217.19
2023-09-27T01:47:30.023Z,100217.69
2023-09-27T01:49:56.588Z,100213.94
2023-09-27T01:52:23.118Z,100230.84
2023-09-27T01:54:50.591Z,100242.13
2023-09-27T01:57:18.336Z,100237.75
2023-09-27T01:59:44.893Z,100223.25
2023-09-27T02:02:11.332Z,100212.78
2023-09-27T02:04:37.854Z,100209.16
2023-09-27T02:07:04.884Z,100203.94
2023-09-27T02:09:31.391Z,100209.91
2023-09-27T02:11:57.895Z,100205.81
2023-09-27T02:14:25.707Z,100214.72
2023-09-27T02:16:52.309Z,100212.78
2023-09-27T02:19:18.738Z,100214.94
2023-09-27T02:21:45.156Z,100222.94
2023-09-27T02:24:11.647Z,100229.81
2023-09-27T02:26:38.241Z,100232.47
2023-09-27T02:29:06.446Z,100234.72
2023-09-27T02:31:34.479Z,100229.31
2023-09-27T02:34:00.879Z,100230.59
2023-09-27T02:36:27.368Z,100213.88
2023-09-27T02:38:54.566Z,100215.00
2023-09-27T02:41:21.119Z,100218.72
2023-09-27T02:43:47.557Z,100209.38
2023-09-27T02:46:14.096Z,100194.56
2023-09-27T02:48:41.860Z,100188.44
2023-09-27T02:51:08.266Z,100188.03
2023-09-27T02:53:34.823Z,100175.41
2023-09-27T02:56:01.291Z,100169.66
2023-09-27T02:58:27.721Z,100162.41
2023-09-27T03:00:54.177Z,100162.16
2023-09-27T03:03:20.927Z,100166.31
2023-09-27T03:05:48.843Z,100170.88
2023-09-27T03:08:15.387Z,100178.47
2023-09-27T03:10:41.861Z,100180.09
2023-09-27T03:13:08.301Z,100180.50
2023-09-27T03:15:37.658Z,100171.19
2023-09-27T03:18:05.047Z,100174.66
2023-09-27T03:20:31.749Z,100171.03
2023-09-27T03:22:59.738Z,100175.06
2023-09-27T03:25:26.448Z,100172.31
2023-09-27T03:27:52.866Z,100178.94
2023-09-27T03:30:19.313Z,100172.56
2023-09-27T03:32:45.748Z,100170.44
2023-09-27T03:35:12.666Z,100173.69
2023-09-27T03:37:39.468Z,100174.22
2023-09-27T03:40:08.792Z,100160.00
2023-09-27T03:42:35.300Z,100164.59
2023-09-27T03:45:01.824Z,100157.09
2023-09-27T03:47:28.366Z,100154.75
2023-09-27T03:49:55.117Z,100159.13
2023-09-27T03:52:21.715Z,100165.88
2023-09-27T03:54:48.238Z,100155.81
2023-09-27T03:57:16.033Z,100156.25
2023-09-27T03:59:42.847Z,100156.25
2023-09-27T04:02:09.488Z,100150.75
2023-09-27T04:04:35.983Z,100161.16
2023-09-27T04:07:02.727Z,100170.00
2023-09-27T04:09:29.992Z,100164.88
2023-09-27T04:11:56.442Z,100152.78
2023-09-27T04:14:24.362Z,100152.19
2023-09-27T04:16:50.838Z,100163.63
2023-09-27T04:19:17.485Z,100164.50
2023-09-27T04:21:44.037Z,100166.66
2023-09-27T04:24:10.523Z,100185.84
2023-09-27T04:26:36.974Z,100181.72
2023-09-27T04:29:04.976Z,100183.38
2023-09-27T04:31:33.447Z,100183.75
2023-09-27T04:33:59.884Z,100174.91
2023-09-27T04:36:29.278Z,100167.44
2023-09-27T04:38:55.790Z,100175.31
2023-09-27T04:41:22.448Z,100176.28
2023-09-27T04:43:48.938Z,100171.56
2023-09-27T04:46:16.354Z,100176.91
2023-09-27T04:48:44.452Z,100178.53
2023-09-27T04:51:11.417Z,100185.44
2023-09-27T04:53:38.520Z,100183.13
2023-09-27T04:56:06.069Z,100183.91
2023-09-27T04:58:32.567Z,100179.66
2023-09-27T05:01:00.229Z,100189.66
2023-09-27T05:03:26.870Z,100177.94
2023-09-27T05:05:56.329Z,100173.81
2023-09-27T05:08:22.976Z,100177.09
2023-09-27T05:10:49.445Z,100202.00
2023-09-27T05:13:15.955Z,100194.91
2023-09-27T05:15:42.575Z,100185.53
2023-09-27T05:18:09.130Z,100190.91
2023-09-27T05:20:36.758Z,100181.41
2023-09-27T05:23:14.287Z,100185.53
2023-09-27T05:25:43.711Z,100191.28
2023-09-27T05:28:10.236Z,100189.66
2023-09-27T05:30:37.056Z,100194.88
2023-09-27T05:33:03.977Z,100192.53
2023-09-27T05:35:30.627Z,100194.53
2023-09-27T05:37:57.239Z,100194.28
2023-09-27T05:40:25.140Z,100196.88
2023-09-27T05:42:51.680Z,100187.53
2023-09-27T05:45:18.364Z,100199.00
2023-09-27T05:47:44.947Z,100198.38
2023-09-27T05:50:11.942Z,100204.00
2023-09-27T05:52:38.524Z,100200.09
2023-09-27T05:55:05.801Z,100202.06
2023-09-27T05:57:33.720Z,100184.81
2023-09-27T06:00:00.384Z,100185.38
2023-09-27T06:02:29.564Z,100182.63
2023-09-27T06:04:56.248Z,100182.06
2023-09-27T06:07:28.547Z,100183.25
2023-09-27T06:09:55.402Z,100188.53
2023-09-27T06:12:21.975Z,100207.19
2023-09-27T06:14:49.773Z,100215.75
2023-09-27T06:17:16.311Z,100223.13
2023-09-27T06:19:42.932Z,100210.72
2023-09-27T06:22:09.404Z,100208.25
2023-09-27T06:24:35.897Z,100201.09
2023-09-27T06:27:02.371Z,100192.78
2023-09-27T06:29:28.926Z,100197.03
2023-09-27T06:31:57.308Z,100216.78
2023-09-27T06:34:23.847Z,100208.13
2023-09-27T06:36:50.370Z,100214.06
2023-09-27T06:39:16.958Z,100201.84
2023-09-27T06:41:43.884Z,100200.25
2023-09-27T06:44:10.572Z,100191.84
2023-09-27T06:46:48.314Z,100195.97
2023-09-27T06:49:17.256Z,100200.56
2023-09-27T06:51:43.833Z,100185.38
2023-09-27T06:54:10.353Z,100200.13
2023-09-27T06:56:37.053Z,100186.09
2023-09-27T06:59:03.566Z,100187.34
2023-09-27T07:01:30.123Z,100180.28
2023-09-27T07:03:56.807Z,100184.38
2023-09-27T07:06:24.715Z,100189.19
2023-09-27T07:08:51.405Z,100196.25
2023-09-27T07:11:18.062Z,100183.38
2023-09-27T07:13:44.528Z,100189.25
2023-09-27T07:16:21.733Z,100179.16
2023-09-27T07:18:48.788Z,100184.06
2023-09-27T07:21:15.437Z,100196.53
2023-09-27T07:23:43.230Z,100200.38
2023-09-27T07:26:10.287Z,100201.03
2023-09-27T07:28:36.762Z,100201.72
2023-09-27T07:31:03.340Z,100199.94
2023-09-27T07:33:29.814Z,100193.34
2023-09-27T07:35:56.225Z,100197.09
2023-09-27T07:38:22.643Z,100205.44
2023-09-27T07:40:51.322Z,100199.53
2023-09-27T07:43:17.734Z,100206.19
2023-09-27T07:45:44.144Z,100199.47
2023-09-27T07:48:10.897Z,100204.38
2023-09-27T07:50:37.722Z,100204.22
2023-09-27T07:53:05.179Z,100193.66
2023-09-27T07:55:31.765Z,100190.66
2023-09-27T07:57:59.972Z,100183.03
2023-09-27T08:00:27.400Z,100169.81
2023-09-27T08:02:53.931Z,100172.59
2023-09-27T08:05:20.464Z,100158.84
2023-09-27T08:07:47.048Z,100163.41
2023-09-27T08:12:42.789Z,100148.53
2023-09-27T08:15:11.963Z,100147.44
2023-09-27T08:17:38.653Z,100148.69
2023-09-27T08:20:06.152Z,100152.16
2023-09-27T08:22:32.816Z,100144.72
2023-09-27T08:24:59.249Z,100141.56
2023-09-27T08:27:26.033Z,100153.00
2023-09-27T08:29:52.443Z,100157.84
2023-09-27T08:32:20.313Z,100165.84
2023-09-27T08:34:46.807Z,100164.97
2023-09-27T08:37:13.321Z,100159.91
2023-09-27T08:39:39.833Z,100151.34
2023-09-27T08:42:06.658Z,100141.81
2023-09-27T08:44:33.477Z,100139.22
2023-09-27T08:47:01.444Z,100139.06
2023-09-27T08:49:29.625Z,100145.72
2023-09-27T08:51:56.075Z,100146.97
2023-09-27T08:54:22.571Z,100141.22
2023-09-27T08:56:50.681Z,100130.25
2023-09-27T08:59:17.403Z,100128.91
2023-09-27T09:01:45.893Z,100121.84
2023-09-27T09:04:12.558Z,100117.00
2023-09-27T09:06:41.246Z,100111.63
2023-09-27T09:09:08.775Z,100111.63
2023-09-27T09:11:35.815Z,100104.66
2023-09-27T09:14:02.259Z,100109.53
2023-09-27T09:16:28.706Z,100103.28
2023-09-27T09:18:56.451Z,100105.41
2023-09-27T09:21:23.416Z,100105.41
2023-09-27T09:23:51.410Z,100097.53
2023-09-27T09:26:35.741Z,100094.31
2023-09-27T09:29:02.305Z,100092.63
2023-09-27T09:31:29.951Z,100086.78
2023-09-27T09:34:08.212Z,100085.31
2023-09-27T09:36:35.464Z,100089.44
2023-09-27T09:39:07.570Z,100087.06
2023-09-27T09:41:47.057Z,100088.72
2023-09-27T09:44:21.574Z,100100.34
2023-09-27T09:46:48.917Z,100100.91
2023-09-27T09:49:16.181Z,100104.09
2023-09-27T09:51:47.284Z,100097.09
2023-09-27T09:54:20.336Z,100101.44
2023-09-27T09:57:00.509Z,100100.19
2023-09-27T09:59:37.779Z,100098.88
2023-09-27T10:02:15.658Z,100088.03
2023-09-27T10:04:42.987Z,100089.28
2023-09-27T10:07:10.369Z,100087.75
2023-09-27T10:09:38.437Z,100084.41
2023-09-27T10:12:05.511Z,100092.75
2023-09-27T10:14:32.460Z,100099.66
2023-09-27T10:16:59.082Z,100101.13
2023-09-27T10:19:26.626Z,100099.53
2023-09-27T10:22:02.256Z,100093.94
2023-09-27T10:24:29.334Z,100098.75
2023-09-27T10:26:57.120Z,100097.53
2023-09-27T10:29:26.601Z,100094.56
2023-09-27T10:32:20.218Z,100104.69
2023-09-27T10:34:48.047Z,100097.25
2023-09-27T10:37:19.228Z,100090.13
2023-09-27T10:40:18.036Z,100108.09
2023-09-27T10:42:45.836Z,100114.81
2023-09-27T10:45:12.399Z,100116.41
2023-09-27T10:47:39.041Z,100111.22
2023-09-27T10:50:08.958Z,100097.75
2023-09-27T10:52:37.867Z,100092.47
2023-09-27T10:55:11.745Z,100084.69
2023-09-27T10:57:40.676Z,100083.47
2023-09-27T11:00:09.472Z,100074.50
2023-09-27T11:02:36.072Z,100067.94
2023-09-27T11:05:02.515Z,100071.59
2023-09-27T11:07:43.116Z,100069.97
2023-09-27T11:10:09.874Z,100056.44
2023-09-27T11:12:36.375Z,100052.03
2023-09-27T11:15:03.133Z,100049.03
2023-09-27T11:17:32.099Z,100045.41
2023-09-27T11:20:10.863Z,100040.69
2023-09-27T11:22:37.278Z,100027.31
2023-09-27T11:25:24.767Z,100035.47
2023-09-27T11:27:51.439Z,100037.44
2023-09-27T11:30:24.308Z,100030.31
2023-09-27T11:32:52.265Z,100022.34
2023-09-27T11:35:19.671Z,100016.31
2023-09-27T11:37:46.255Z,100012.59
2023-09-27T11:40:12.729Z,100003.97
2023-09-27T11:42:39.432Z,100015.44
2023-09-27T11:45:07.957Z,100010.50
2023-09-27T11:47:45.883Z,99997.34
2023-09-27T11:50:14.058Z,99994.28
2023-09-27T11:52:40.481Z,99990.84
2023-09-27T11:55:08.023Z,99993.03
2023-09-27T11:57:34.502Z,99995.38
2023-09-27T12:00:00.936Z,99984.44
2023-09-27T12:02:31.006Z,99986.41
2023-09-27T12:04:59.944Z,99978.19
2023-09-27T12:07:28.166Z,99980.09
2023-09-27T12:09:55.479Z,99965.25
2023-09-27T12:12:22.330Z,99967.81
2023-09-27T12:14:48.860Z,99961.56
2023-09-27T12:17:15.381Z,99955.75
2023-09-27T12:19:41.937Z,99949.94
2023-09-27T12:22:08.356Z,99954.41
2023-09-27T12:24:36.109Z,99954.88
2023-09-27T12:27:03.058Z,99945.16
2023-09-27T12:29:30.589Z,99942.19
2023-09-27T12:31:57.352Z,99946.91
2023-09-27T12:34:24.049Z,99942.63
2023-09-27T12:36:50.471Z,99943.47
2023-09-27T12:39:20.833Z,99933.34
2023-09-27T12:41:48.774Z,99928.56
2023-09-27T12:44:22.089Z,99928.97
2023-09-27T12:46:49.763Z,99919.97
2023-09-27T12:49:16.267Z,99929.25
2023-09-27T12:51:49.551Z,99915.03
2023-09-27T12:54:16.576Z,99924.28
2023-09-27T12:56:43.134Z,99913.72
2023-09-27T12:59:11.268Z,99913.72
2023-09-27T13:01:40.463Z,99919.09
2023-09-27T13:04:07.597Z,99911.97
2023-09-27T13:06:34.094Z,99913.28
2023-09-27T13:09:00.608Z,99900.56
2023-09-27T13:11:27.085Z,99902.47
2023-09-27T13:13:53.508Z,99902.41
2023-09-27T13:16:21.285Z,99892.97
2023-09-27T13:18:47.772Z,99895.56
2023-09-27T13:21:14.291Z,99892.88
2023-09-27T13:23:41.095Z,99892.59
2023-09-27T13:26:07.729Z,99890.66
2023-09-27T13:28:34.145Z,99887.94
2023-09-27T13:31:00.622Z,99884.06
2023-09-27T13:33:28.532Z,99876.19
2023-09-27T13:35:55.097Z,99873.84
2023-09-27T13:38:21.646Z,99877.50
2023-09-27T13:40:48.101Z,99874.00
2023-09-27T13:43:14.524Z,99875.56
2023-09-27T13:45:41.111Z,99870.16
2023-09-27T13:48:07.802Z,99870.31
2023-09-27T13:50:35.793Z,99863.69
2023-09-27T13:53:02.278Z,99859.38
2023-09-27T13:55:31.652Z,99863.50
2023-09-27T13:57:58.134Z,99862.91
2023-09-27T14:00:24.886Z,99861.84
2023-09-27T14:02:51.368Z,99862.16
2023-09-27T14:05:18.371Z,99854.63
2023-09-27T14:07:47.311Z,99850.16
2023-09-27T14:10:13.766Z,99854.66
2023-09-27T14:12:40.463Z,99850.97
2023-09-27T14:15:07.760Z,99844.91
2023-09-27T14:17:34.365Z,99844.81
2023-09-27T14:20:00.952Z,99842.13
2023-09-27T14:22:27.465Z,99844.69
2023-09-27T14:24:55.382Z,99843.00
2023-09-27T14:27:21.882Z,99831.63
2023-09-27T14:29:48.342Z,99836.59
2023-09-27T14:32:14.946Z,99839.78
2023-09-27T14:34:56.566Z,99831.66
2023-09-27T14:37:23.831Z,99832.72
2023-09-27T14:39:50.294Z,99827.31
2023-09-27T14:42:18.171Z,99831.81
2023-09-27T14:44:44.904Z,99826.22
2023-09-27T14:47:11.459Z,99832.50
2023-09-27T14:49:37.982Z,99831.84
2023-09-27T14:52:04.569Z,99827.75
2023-09-27T14:54:30.998Z,99821.53
2023-09-27T14:56:57.565Z,99822.63
2023-09-27T14:59:27.324Z,99815.72
2023-09-27T15:01:53.801Z,99814.22
2023-09-27T15:04:20.596Z,99811.84
2023-09-27T15:06:47.127Z,99816.34
2023-09-27T15:09:13.690Z,99809.84
2023-09-27T15:11:40.145Z,99806.38
2023-09-27T15:14:06.711Z,99806.16
2023-09-27T15:16:34.586Z,99818.38
2023-09-27T15:19:01.264Z,99814.09
2023-09-27T15:21:27.813Z,99814.34
2023-09-27T15:23:54.389Z,99820.38
2023-09-27T15:26:20.944Z,99817.75
2023-09-27T15:28:47.486Z,99812.63
2023-09-27T15:31:14.051Z,99813.16
2023-09-27T15:33:41.876Z,99819.41
2023-09-27T15:36:08.339Z,99811.78
2023-09-27T15:38:35.116Z,99801.94
2023-09-27T15:41:01.687Z,99801.47
2023-09-27T15:43:28.486Z,99794.97
2023-09-27T15:45:59.654Z,99800.19
2023-09-27T15:48:27.911Z,99790.59
2023-09-27T15:50:55.806Z,99784.16
2023-09-27T15:53:22.260Z,99780.47
2023-09-27T15:55:48.809Z,99778.66
2023-09-27T15:58:15.380Z,99779.19
2023-09-27T16:00:42.049Z,99787.56
2023-09-27T16:03:08.693Z,99777.75
2023-09-27T16:05:35.381Z,99783.72
2023-09-27T16:08:03.718Z,99784.97
2023-09-27T16:10:32.515Z,99777.91
2023-09-27T16:12:59.105Z,99782.59
2023-09-27T16:15:25.695Z,99781.13
2023-09-27T16:17:52.206Z,99788.13
2023-09-27T16:20:18.686Z,99782.69
2023-09-27T16:22:45.178Z,99787.53
2023-09-27T16:25:13.036Z,99789.44
2023-09-27T16:27:39.591Z,99774.31
2023-09-27T16:30:07.988Z,99781.81
2023-09-27T16:32:35.144Z,99786.16
2023-09-27T16:35:01.912Z,99786.66
2023-09-27T16:37:28.520Z,99791.69
2023-09-27T16:39:55.150Z,99792.84
2023-09-27T16:42:23.070Z,99778.75
2023-09-27T16:44:51.698Z,99781.09
2023-09-27T16:47:18.259Z,99782.06
2023-09-27T16:49:44.704Z,99775.53
2023-09-27T16:52:11.448Z,99782.06
2023-09-27T16:54:38.004Z,99775.41
2023-09-27T16:57:04.547Z,99787.03
2023-09-27T16:59:33.861Z,99779.47
2023-09-27T17:02:00.440Z,99772.06
2023-09-27T17:04:27.050Z,99780.09
2023-09-27T17:06:53.593Z,99760.03
2023-09-27T17:09:20.171Z,99770.50
2023-09-27T17:11:46.688Z,99758.97
2023-09-27T17:14:13.119Z,99763.56
2023-09-27T17:16:41.114Z,99773.13
2023-09-27T17:19:07.654Z,99756.91
2023-09-27T17:21:34.335Z,99759.47
2023-09-27T17:24:01.253Z,99755.59
2023-09-27T17:26:27.830Z,99755.47
2023-09-27T17:28:54.326Z,99748.06
2023-09-27T17:31:21.258Z,99752.44
2023-09-27T17:33:49.489Z,99742.91
2023-09-27T17:36:16.224Z,99735.09
2023-09-27T17:38:42.695Z,99730.66
2023-09-27T17:41:10.404Z,99735.34
2023-09-27T17:43:36.996Z,99726.94
2023-09-27T17:46:19.681Z,99728.16
2023-09-27T17:48:46.394Z,99742.19
2023-09-27T17:51:14.260Z,99735.16
2023-09-27T17:53:40.881Z,99725.66
2023-09-27T17:56:08.939Z,99721.34
2023-09-27T17:58:35.647Z,99722.06
2023-09-27T18:01:02.169Z,99728.16
2023-09-27T18:03:28.797Z,99725.34
2023-09-27T18:05:55.439Z,99725.19
2023-09-27T18:08:23.236Z,99722.28
2023-09-27T18:10:49.687Z,99726.13
2023-09-27T18:13:18.585Z,99725.75
2023-09-27T18:15:46.235Z,99730.09
2023-09-27T18:18:12.918Z,99730.47
2023-09-27T18:20:39.668Z,99727.34
2023-09-27T18:23:06.197Z,99729.56
2023-09-27T18:25:34.323Z,99736.38
2023-09-27T18:28:01.333Z,99742.56
2023-09-27T18:30:27.886Z,99741.38
2023-09-27T18:32:54.397Z,99752.66
2023-09-27T18:35:20.850Z,99749.19
2023-09-27T18:37:47.295Z,99751.25
2023-09-27T18:40:13.987Z,99750.75
2023-09-27T18:42:41.869Z,99742.78
2023-09-27T18:45:09.880Z,99740.38
2023-09-27T18:47:36.716Z,99737.09
2023-09-27T18:50:03.511Z,99733.47
2023-09-27T18:52:30.085Z,99739.53
2023-09-27T18:54:56.652Z,99722.38
2023-09-27T18:57:23.184Z,99729.50
2023-09-27T18:59:51.062Z,99727.38
2023-09-27T19:02:17.595Z,99712.19
2023-09-27T19:04:44.327Z,99717.91
2023-09-27T19:07:10.892Z,99715.66
2023-09-27T19:09:37.339Z,99721.88
2023-09-27T19:12:04.248Z,99704.06
2023-09-27T19:14:30.726Z,99696.09
2023-09-27T19:16:58.565Z,99701.75
2023-09-27T19:19:25.171Z,99685.84
2023-09-27T19:21:51.611Z,99696.59
2023-09-27T19:24:18.097Z,99699.53
2023-09-27T19:26:44.727Z,99699.19
2023-09-27T19:29:11.212Z,99695.72
2023-09-27T19:31:37.913Z,99703.91
2023-09-27T19:34:05.954Z,99695.56
2023-09-27T19:36:32.496Z,99691.56
2023-09-27T19:38:59.153Z,99691.06
2023-09-27T19:41:28.967Z,99677.91
2023-09-27T19:43:55.517Z,99691.75
2023-09-27T19:46:22.408Z,99680.84
2023-09-27T19:48:48.948Z,99681.19
2023-09-27T19:51:24.070Z,99675.50
2023-09-27T19:53:50.895Z,99675.84
2023-09-27T19:56:17.467Z,99675.31
2023-09-27T19:58:44.566Z,99681.19
2023-09-27T20:01:12.325Z,99669.94
2023-09-27T20:03:38.879Z,99668.88
2023-09-27T20:06:05.437Z,99669.94
2023-09-27T20:08:33.299Z,99672.34
2023-09-27T20:10:59.886Z,99670.13
2023-09-27T20:13:26.509Z,99693.84
2023-09-27T20:15:52.986Z,99688.97
2023-09-27T20:18:19.548Z,99698.84
2023-09-27T20:20:46.247Z,99698.00
2023-09-27T20:23:12.707Z,99678.75
2023-09-27T20:25:40.701Z,99693.28
2023-09-27T20:28:07.155Z,99686.19
2023-09-27T20:30:33.771Z,99688.97
2023-09-27T20:33:00.277Z,99688.97
2023-09-27T20:35:26.989Z,99685.53
2023-09-27T20:37:53.526Z,99694.84
2023-09-27T20:40:20.207Z,99687.25
2023-09-27T20:42:48.045Z,99683.44
2023-09-27T20:45:14.662Z,99683.28
2023-09-27T20:47:41.321Z,99668.03
2023-09-27T20:50:08.583Z,99674.41
2023-09-27T20:52:35.175Z,99678.25
2023-09-27T20:55:01.680Z,99670.78
2023-09-27T20:57:28.412Z,99681.72
2023-09-27T20:59:56.416Z,99682.06
2023-09-27T21:02:22.897Z,99676.84
2023-09-27T21:04:49.435Z,99690.69
2023-09-27T21:07:15.943Z,99694.84
2023-09-27T21:09:42.469Z,99695.38
2023-09-27T21:12:09.299Z,99684.81
2023-09-27T21:14:35.916Z,99682.06
2023-09-27T21:17:03.962Z,99677.53
2023-09-27T21:19:30.638Z,99671.13
2023-09-27T21:21:57.142Z,99655.25
2023-09-27T21:24:23.607Z,99649.50
2023-09-27T21:26:50.899Z,99658.53
2023-09-27T21:29:17.348Z,99671.66
2023-09-27T21:31:44.197Z,99655.03
2023-09-27T21:34:14.611Z,99649.50
2023-09-27T21:36:41.241Z,99644.34
2023-09-27T21:39:08.166Z,99637.19
2023-09-27T21:41:34.713Z,99621.84
2023-09-27T21:44:01.400Z,99619.38
2023-09-27T21:46:28.135Z,99627.19
2023-09-27T21:48:54.823Z,99616.81
2023-09-27T21:51:22.874Z,99605.75
2023-09-27T21:53:49.715Z,99609.69
2023-09-27T21:56:16.599Z,99615.09
2023-09-27T21:58:46.137Z,99624.91
2023-09-27T22:01:13.948Z,99631.84
2023-09-27T22:03:41.483Z,99638.44
2023-09-27T22:06:08.725Z,99629.25
2023-09-27T22:08:36.918Z,99626.84
2023-09-27T22:11:03.518Z,99631.50
2023-09-27T22:13:30.468Z,99631.66
2023-09-27T22:15:58.247Z,99645.34
2023-09-27T22:18:25.228Z,99651.59
2023-09-27T22:20:52.246Z,99637.56
2023-09-27T22:23:21.218Z,99614.03
2023-09-27T22:25:49.001Z,99615.56
2023-09-27T22:28:15.457Z,99608.66
2023-09-27T22:30:41.936Z,99614.53
2023-09-27T22:33:08.399Z,99589.44
2023-09-27T22:35:34.912Z,99583.38
2023-09-27T22:38:01.510Z,99595.66
2023-09-27T22:40:28.104Z,99594.97
2023-09-27T22:42:55.934Z,99586.50
2023-09-27T22:45:22.578Z,99590.09
2023-09-27T22:47:49.150Z,99598.94
2023-09-27T22:50:15.592Z,99592.69
2023-09-27T22:52:42.078Z,99595.47
2023-09-27T22:55:08.884Z,99595.06
2023-09-27T22:57:35.364Z,99585.22
2023-09-27T23:00:03.989Z,99583.34
2023-09-27T23:02:30.509Z,99586.97
2023-09-27T23:04:57.030Z,99589.41
2023-09-27T23:07:23.486Z,99597.38
2023-09-27T23:09:49.962Z,99588.41
2023-09-27T23:12:16.395Z,99590.63
2023-09-27T23:14:43.017Z,99589.59
2023-09-27T23:17:11.017Z,99591.13
2023-09-27T23:19:37.507Z,99590.94
2023-09-27T23:22:04.007Z,99584.56
2023-09-27T23:24:30.594Z,99595.16
2023-09-27T23:26:57.429Z,99586.16
2023-09-27T23:29:23.893Z,99583.88
2023-09-27T23:31:50.478Z,99583.84
2023-09-27T23:34:18.321Z,99572.44
2023-09-27T23:36:44.813Z,99574.31
2023-09-27T23:39:11.219Z,99553.75
2023-09-27T23:41:37.724Z,99557.03
2023-09-27T23:44:04.858Z,99564.13
2023-09-27T23:46:36.227Z,99574.72
2023-09-27T23:49:03.048Z,99584.06
2023-09-27T23:51:31.583Z,99582.19
2023-09-27T23:53:58.054Z,99591.53
2023-09-27T23:56:24.529Z,99584.78
2023-09-27T23:58:51.068Z,99577.47
